sensor_id;sensor_type;location;lat;lon;timestamp;P1;durP1;ratioP1;P2;durP2;ratioP2
12603;SDS011;6367;52.508;13.284;2024-02-21T00:01:05;13.87;;;5.90;;
12603;SDS011;6367;52.508;13.284;2024-02-21T00:03:31;16.53;;;6.23;;
12603;SDS011;6367;52.508;13.284;2024-02-21T00:05:56;13.73;;;6.17;;
12603;SDS011;6367;52.508;13.284;2024-02-21T00:08:22;16.03;;;5.80;;
12603;SDS011;6367;52.508;13.284;2024-02-21T00:10:48;12.53;;;5.30;;
12603;SDS011;6367;52.508;13.284;2024-02-21T00:13:14;17.43;;;6.30;;
12603;SDS011;6367;52.508;13.284;2024-02-21T00:15:40;17.00;;;5.90;;
12603;SDS011;6367;52.508;13.284;2024-02-21T00:18:05;12.53;;;5.23;;
12603;SDS011;6367;52.508;13.284;2024-02-21T00:20:31;11.60;;;5.27;;
12603;SDS011;6367;52.508;13.284;2024-02-21T00:22:57;15.80;;;6.30;;
12603;SDS011;6367;52.508;13.284;2024-02-21T00:25:22;16.53;;;5.90;;
12603;SDS011;6367;52.508;13.284;2024-02-21T00:27:48;14.50;;;4.83;;
12603;SDS011;6367;52.508;13.284;2024-02-21T00:30:14;17.90;;;5.90;;
12603;SDS011;6367;52.508;13.284;2024-02-21T00:32:39;14.00;;;5.60;;
12603;SDS011;6367;52.508;13.284;2024-02-21T00:35:05;12.53;;;4.70;;
12603;SDS011;6367;52.508;13.284;2024-02-21T00:37:31;12.33;;;5.73;;
12603;SDS011;6367;52.508;13.284;2024-02-21T00:39:57;12.77;;;5.17;;
12603;SDS011;6367;52.508;13.284;2024-02-21T00:42:22;12.23;;;6.43;;
12603;SDS011;6367;52.508;13.284;2024-02-21T00:44:48;15.20;;;6.73;;
12603;SDS011;6367;52.508;13.284;2024-02-21T00:47:14;14.53;;;6.07;;
12603;SDS011;6367;52.508;13.284;2024-02-21T00:49:39;12.67;;;6.80;;
12603;SDS011;6367;52.508;13.284;2024-02-21T00:52:05;17.60;;;7.17;;
12603;SDS011;6367;52.508;13.284;2024-02-21T00:54:31;13.67;;;6.50;;
12603;SDS011;6367;52.508;13.284;2024-02-21T00:56:57;11.03;;;6.10;;
12603;SDS011;6367;52.508;13.284;2024-02-21T00:59:22;19.60;;;6.63;;
12603;SDS011;6367;52.508;13.284;2024-02-21T01:01:49;15.67;;;6.80;;
12603;SDS011;6367;52.508;13.284;2024-02-21T01:04:15;13.07;;;6.33;;
12603;SDS011;6367;52.508;13.284;2024-02-21T01:06:40;16.87;;;5.27;;
12603;SDS011;6367;52.508;13.284;2024-02-21T01:09:09;9.40;;;4.67;;
12603;SDS011;6367;52.508;13.284;2024-02-21T01:11:35;10.60;;;4.90;;
12603;SDS011;6367;52.508;13.284;2024-02-21T01:14:01;17.63;;;6.00;;
12603;SDS011;6367;52.508;13.284;2024-02-21T01:16:27;7.70;;;4.57;;
12603;SDS011;6367;52.508;13.284;2024-02-21T01:18:52;8.30;;;4.73;;
12603;SDS011;6367;52.508;13.284;2024-02-21T01:21:18;10.27;;;5.20;;
12603;SDS011;6367;52.508;13.284;2024-02-21T01:23:43;14.13;;;5.13;;
12603;SDS011;6367;52.508;13.284;2024-02-21T01:26:09;12.83;;;5.43;;
12603;SDS011;6367;52.508;13.284;2024-02-21T01:28:38;9.50;;;4.40;;
12603;SDS011;6367;52.508;13.284;2024-02-21T01:31:03;14.90;;;4.93;;
12603;SDS011;6367;52.508;13.284;2024-02-21T01:33:29;8.33;;;5.87;;
12603;SDS011;6367;52.508;13.284;2024-02-21T01:36:00;20.60;;;6.00;;
12603;SDS011;6367;52.508;13.284;2024-02-21T01:38:26;13.97;;;6.30;;
12603;SDS011;6367;52.508;13.284;2024-02-21T01:40:53;11.53;;;5.23;;
12603;SDS011;6367;52.508;13.284;2024-02-21T01:43:19;18.10;;;5.03;;
12603;SDS011;6367;52.508;13.284;2024-02-21T01:45:49;12.07;;;5.33;;
12603;SDS011;6367;52.508;13.284;2024-02-21T01:48:17;12.23;;;5.17;;
12603;SDS011;6367;52.508;13.284;2024-02-21T01:50:44;13.30;;;5.07;;
12603;SDS011;6367;52.508;13.284;2024-02-21T01:53:11;16.43;;;5.50;;
12603;SDS011;6367;52.508;13.284;2024-02-21T01:55:43;10.70;;;5.50;;
12603;SDS011;6367;52.508;13.284;2024-02-21T01:58:16;10.00;;;5.00;;
12603;SDS011;6367;52.508;13.284;2024-02-21T02:00:44;11.47;;;4.73;;
12603;SDS011;6367;52.508;13.284;2024-02-21T02:03:11;12.20;;;4.70;;
12603;SDS011;6367;52.508;13.284;2024-02-21T02:05:44;12.20;;;4.50;;
12603;SDS011;6367;52.508;13.284;2024-02-21T02:08:14;10.47;;;4.80;;
12603;SDS011;6367;52.508;13.284;2024-02-21T02:10:41;12.97;;;4.40;;
12603;SDS011;6367;52.508;13.284;2024-02-21T02:13:07;14.03;;;4.40;;
12603;SDS011;6367;52.508;13.284;2024-02-21T02:15:40;12.27;;;5.13;;
12603;SDS011;6367;52.508;13.284;2024-02-21T02:18:10;16.47;;;5.20;;
12603;SDS011;6367;52.508;13.284;2024-02-21T02:20:37;13.90;;;6.10;;
12603;SDS011;6367;52.508;13.284;2024-02-21T02:23:24;11.20;;;4.80;;
12603;SDS011;6367;52.508;13.284;2024-02-21T02:25:49;16.27;;;6.97;;
12603;SDS011;6367;52.508;13.284;2024-02-21T02:28:17;15.00;;;5.33;;
12603;SDS011;6367;52.508;13.284;2024-02-21T02:30:43;6.90;;;4.77;;
12603;SDS011;6367;52.508;13.284;2024-02-21T02:33:09;13.83;;;5.30;;
12603;SDS011;6367;52.508;13.284;2024-02-21T02:35:35;11.77;;;4.70;;
12603;SDS011;6367;52.508;13.284;2024-02-21T02:38:01;11.37;;;5.00;;
12603;SDS011;6367;52.508;13.284;2024-02-21T02:40:27;12.30;;;5.23;;
12603;SDS011;6367;52.508;13.284;2024-02-21T02:42:53;14.53;;;5.63;;
12603;SDS011;6367;52.508;13.284;2024-02-21T02:45:20;12.03;;;6.70;;
12603;SDS011;6367;52.508;13.284;2024-02-21T02:47:47;14.33;;;5.40;;
12603;SDS011;6367;52.508;13.284;2024-02-21T02:50:13;14.67;;;6.20;;
12603;SDS011;6367;52.508;13.284;2024-02-21T02:52:39;14.60;;;5.30;;
12603;SDS011;6367;52.508;13.284;2024-02-21T02:55:05;11.50;;;5.33;;
12603;SDS011;6367;52.508;13.284;2024-02-21T02:57:31;9.60;;;4.70;;
12603;SDS011;6367;52.508;13.284;2024-02-21T02:59:57;14.60;;;4.80;;
12603;SDS011;6367;52.508;13.284;2024-02-21T03:02:23;9.30;;;4.40;;
12603;SDS011;6367;52.508;13.284;2024-02-21T03:04:48;11.60;;;5.53;;
12603;SDS011;6367;52.508;13.284;2024-02-21T03:07:15;12.43;;;4.97;;
12603;SDS011;6367;52.508;13.284;2024-02-21T03:09:41;12.87;;;5.87;;
12603;SDS011;6367;52.508;13.284;2024-02-21T03:12:09;14.27;;;9.30;;
12603;SDS011;6367;52.508;13.284;2024-02-21T03:14:35;12.50;;;6.77;;
12603;SDS011;6367;52.508;13.284;2024-02-21T03:17:01;18.70;;;6.43;;
12603;SDS011;6367;52.508;13.284;2024-02-21T03:19:28;14.70;;;5.07;;
12603;SDS011;6367;52.508;13.284;2024-02-21T03:21:54;13.47;;;6.00;;
12603;SDS011;6367;52.508;13.284;2024-02-21T03:24:20;19.27;;;6.40;;
12603;SDS011;6367;52.508;13.284;2024-02-21T03:26:46;12.57;;;5.80;;
12603;SDS011;6367;52.508;13.284;2024-02-21T03:29:15;14.20;;;4.73;;
12603;SDS011;6367;52.508;13.284;2024-02-21T03:31:41;14.57;;;6.67;;
12603;SDS011;6367;52.508;13.284;2024-02-21T03:34:08;12.37;;;5.37;;
12603;SDS011;6367;52.508;13.284;2024-02-21T03:36:35;7.20;;;4.90;;
12603;SDS011;6367;52.508;13.284;2024-02-21T03:39:01;14.73;;;5.87;;
12603;SDS011;6367;52.508;13.284;2024-02-21T03:41:26;9.03;;;5.00;;
12603;SDS011;6367;52.508;13.284;2024-02-21T03:43:52;13.63;;;5.70;;
12603;SDS011;6367;52.508;13.284;2024-02-21T03:46:18;14.40;;;5.80;;
12603;SDS011;6367;52.508;13.284;2024-02-21T03:48:43;10.70;;;5.50;;
12603;SDS011;6367;52.508;13.284;2024-02-21T03:51:10;10.10;;;6.03;;
12603;SDS011;6367;52.508;13.284;2024-02-21T03:53:36;13.73;;;6.63;;
12603;SDS011;6367;52.508;13.284;2024-02-21T03:56:01;15.43;;;7.03;;
12603;SDS011;6367;52.508;13.284;2024-02-21T03:58:29;11.70;;;6.50;;
12603;SDS011;6367;52.508;13.284;2024-02-21T04:00:55;12.90;;;5.93;;
12603;SDS011;6367;52.508;13.284;2024-02-21T04:03:21;11.73;;;6.10;;
12603;SDS011;6367;52.508;13.284;2024-02-21T04:05:46;12.17;;;6.40;;
12603;SDS011;6367;52.508;13.284;2024-02-21T04:08:13;16.40;;;6.70;;
12603;SDS011;6367;52.508;13.284;2024-02-21T04:10:39;20.40;;;6.63;;
12603;SDS011;6367;52.508;13.284;2024-02-21T04:13:06;14.27;;;5.77;;
12603;SDS011;6367;52.508;13.284;2024-02-21T04:15:32;11.50;;;5.57;;
12603;SDS011;6367;52.508;13.284;2024-02-21T04:17:57;13.50;;;6.60;;
12603;SDS011;6367;52.508;13.284;2024-02-21T04:20:23;14.00;;;5.90;;
12603;SDS011;6367;52.508;13.284;2024-02-21T04:22:49;11.90;;;7.23;;
12603;SDS011;6367;52.508;13.284;2024-02-21T04:25:15;14.10;;;7.37;;
12603;SDS011;6367;52.508;13.284;2024-02-21T04:27:41;14.47;;;6.30;;
12603;SDS011;6367;52.508;13.284;2024-02-21T04:30:07;15.40;;;6.63;;
12603;SDS011;6367;52.508;13.284;2024-02-21T04:32:33;18.00;;;6.90;;
12603;SDS011;6367;52.508;13.284;2024-02-21T04:34:59;15.00;;;6.73;;
12603;SDS011;6367;52.508;13.284;2024-02-21T04:37:24;14.60;;;6.90;;
12603;SDS011;6367;52.508;13.284;2024-02-21T04:39:52;11.90;;;6.30;;
12603;SDS011;6367;52.508;13.284;2024-02-21T04:42:18;13.33;;;6.47;;
12603;SDS011;6367;52.508;13.284;2024-02-21T04:44:44;13.13;;;7.10;;
12603;SDS011;6367;52.508;13.284;2024-02-21T04:47:09;13.03;;;6.60;;
12603;SDS011;6367;52.508;13.284;2024-02-21T04:49:35;14.90;;;7.57;;
12603;SDS011;6367;52.508;13.284;2024-02-21T04:52:01;11.97;;;6.10;;
12603;SDS011;6367;52.508;13.284;2024-02-21T04:54:27;12.53;;;6.80;;
12603;SDS011;6367;52.508;13.284;2024-02-21T04:56:52;13.60;;;6.60;;
12603;SDS011;6367;52.508;13.284;2024-02-21T04:59:18;14.23;;;7.90;;
12603;SDS011;6367;52.508;13.284;2024-02-21T05:01:44;11.77;;;6.63;;
12603;SDS011;6367;52.508;13.284;2024-02-21T05:04:10;15.13;;;6.90;;
12603;SDS011;6367;52.508;13.284;2024-02-21T05:06:38;13.63;;;7.00;;
12603;SDS011;6367;52.508;13.284;2024-02-21T05:09:05;13.60;;;6.97;;
12603;SDS011;6367;52.508;13.284;2024-02-21T05:11:31;16.23;;;8.20;;
12603;SDS011;6367;52.508;13.284;2024-02-21T05:13:57;11.37;;;7.37;;
12603;SDS011;6367;52.508;13.284;2024-02-21T05:16:22;11.90;;;7.00;;
12603;SDS011;6367;52.508;13.284;2024-02-21T05:18:48;17.33;;;8.10;;
12603;SDS011;6367;52.508;13.284;2024-02-21T05:21:14;15.67;;;7.90;;
12603;SDS011;6367;52.508;13.284;2024-02-21T05:23:39;16.27;;;7.27;;
12603;SDS011;6367;52.508;13.284;2024-02-21T05:26:05;23.30;;;7.97;;
12603;SDS011;6367;52.508;13.284;2024-02-21T05:28:31;16.50;;;7.50;;
12603;SDS011;6367;52.508;13.284;2024-02-21T05:30:57;14.63;;;7.67;;
12603;SDS011;6367;52.508;13.284;2024-02-21T05:33:23;20.87;;;8.03;;
12603;SDS011;6367;52.508;13.284;2024-02-21T05:35:49;16.03;;;7.70;;
12603;SDS011;6367;52.508;13.284;2024-02-21T05:38:15;12.03;;;6.93;;
12603;SDS011;6367;52.508;13.284;2024-02-21T05:40:41;18.10;;;9.97;;
12603;SDS011;6367;52.508;13.284;2024-02-21T05:43:07;15.27;;;7.63;;
12603;SDS011;6367;52.508;13.284;2024-02-21T05:45:33;14.00;;;7.67;;
12603;SDS011;6367;52.508;13.284;2024-02-21T05:47:59;14.40;;;7.37;;
12603;SDS011;6367;52.508;13.284;2024-02-21T05:50:25;12.00;;;7.97;;
12603;SDS011;6367;52.508;13.284;2024-02-21T05:52:52;16.43;;;9.47;;
12603;SDS011;6367;52.508;13.284;2024-02-21T05:55:19;14.40;;;8.60;;
12603;SDS011;6367;52.508;13.284;2024-02-21T05:57:45;16.70;;;8.60;;
12603;SDS011;6367;52.508;13.284;2024-02-21T06:00:10;17.67;;;10.50;;
12603;SDS011;6367;52.508;13.284;2024-02-21T06:02:36;19.20;;;9.27;;
12603;SDS011;6367;52.508;13.284;2024-02-21T06:05:02;14.90;;;8.27;;
12603;SDS011;6367;52.508;13.284;2024-02-21T06:07:28;14.30;;;7.47;;
12603;SDS011;6367;52.508;13.284;2024-02-21T06:09:53;22.47;;;9.30;;
12603;SDS011;6367;52.508;13.284;2024-02-21T06:12:19;13.47;;;8.80;;
12603;SDS011;6367;52.508;13.284;2024-02-21T06:14:44;19.77;;;8.30;;
12603;SDS011;6367;52.508;13.284;2024-02-21T06:17:10;16.10;;;8.20;;
12603;SDS011;6367;52.508;13.284;2024-02-21T06:19:39;21.17;;;9.30;;
12603;SDS011;6367;52.508;13.284;2024-02-21T06:22:06;15.40;;;8.17;;
12603;SDS011;6367;52.508;13.284;2024-02-21T06:24:33;16.17;;;7.30;;
12603;SDS011;6367;52.508;13.284;2024-02-21T06:26:59;15.80;;;7.67;;
12603;SDS011;6367;52.508;13.284;2024-02-21T06:29:25;15.27;;;8.70;;
12603;SDS011;6367;52.508;13.284;2024-02-21T06:31:50;15.20;;;8.20;;
12603;SDS011;6367;52.508;13.284;2024-02-21T06:34:16;18.37;;;9.33;;
12603;SDS011;6367;52.508;13.284;2024-02-21T06:36:42;15.10;;;9.80;;
12603;SDS011;6367;52.508;13.284;2024-02-21T06:39:09;19.37;;;9.60;;
12603;SDS011;6367;52.508;13.284;2024-02-21T06:41:36;17.87;;;8.20;;
12603;SDS011;6367;52.508;13.284;2024-02-21T06:44:02;12.60;;;8.43;;
12603;SDS011;6367;52.508;13.284;2024-02-21T06:46:29;18.27;;;9.47;;
12603;SDS011;6367;52.508;13.284;2024-02-21T06:48:55;14.93;;;8.60;;
12603;SDS011;6367;52.508;13.284;2024-02-21T06:51:25;17.43;;;9.80;;
12603;SDS011;6367;52.508;13.284;2024-02-21T06:53:51;15.13;;;8.70;;
12603;SDS011;6367;52.508;13.284;2024-02-21T06:56:16;13.47;;;9.00;;
12603;SDS011;6367;52.508;13.284;2024-02-21T06:58:42;19.47;;;8.63;;
12603;SDS011;6367;52.508;13.284;2024-02-21T07:01:08;22.40;;;11.47;;
12603;SDS011;6367;52.508;13.284;2024-02-21T07:03:34;19.70;;;10.17;;
12603;SDS011;6367;52.508;13.284;2024-02-21T07:05:59;16.97;;;8.60;;
12603;SDS011;6367;52.508;13.284;2024-02-21T07:08:25;13.37;;;8.77;;
12603;SDS011;6367;52.508;13.284;2024-02-21T07:10:51;13.80;;;8.27;;
12603;SDS011;6367;52.508;13.284;2024-02-21T07:13:17;13.53;;;8.30;;
12603;SDS011;6367;52.508;13.284;2024-02-21T07:15:42;11.67;;;7.97;;
12603;SDS011;6367;52.508;13.284;2024-02-21T07:18:08;20.13;;;8.57;;
12603;SDS011;6367;52.508;13.284;2024-02-21T07:20:34;14.53;;;8.73;;
12603;SDS011;6367;52.508;13.284;2024-02-21T07:23:02;14.00;;;8.53;;
12603;SDS011;6367;52.508;13.284;2024-02-21T07:25:27;16.03;;;9.07;;
12603;SDS011;6367;52.508;13.284;2024-02-21T07:27:53;13.40;;;8.27;;
12603;SDS011;6367;52.508;13.284;2024-02-21T07:30:19;18.60;;;8.40;;
12603;SDS011;6367;52.508;13.284;2024-02-21T07:32:44;16.43;;;8.47;;
12603;SDS011;6367;52.508;13.284;2024-02-21T07:35:10;13.83;;;7.67;;
12603;SDS011;6367;52.508;13.284;2024-02-21T07:37:37;13.77;;;8.20;;
12603;SDS011;6367;52.508;13.284;2024-02-21T07:40:06;19.03;;;8.27;;
12603;SDS011;6367;52.508;13.284;2024-02-21T07:42:37;13.77;;;8.07;;
12603;SDS011;6367;52.508;13.284;2024-02-21T07:45:02;26.57;;;21.17;;
12603;SDS011;6367;52.508;13.284;2024-02-21T07:47:28;17.17;;;13.30;;
12603;SDS011;6367;52.508;13.284;2024-02-21T07:49:54;13.50;;;8.23;;
12603;SDS011;6367;52.508;13.284;2024-02-21T07:52:20;11.60;;;7.87;;
12603;SDS011;6367;52.508;13.284;2024-02-21T07:54:46;16.40;;;7.50;;
12603;SDS011;6367;52.508;13.284;2024-02-21T07:57:12;12.90;;;8.20;;
12603;SDS011;6367;52.508;13.284;2024-02-21T07:59:37;13.23;;;8.50;;
12603;SDS011;6367;52.508;13.284;2024-02-21T08:02:03;17.43;;;8.87;;
12603;SDS011;6367;52.508;13.284;2024-02-21T08:04:31;15.13;;;8.20;;
12603;SDS011;6367;52.508;13.284;2024-02-21T08:06:57;12.50;;;7.00;;
12603;SDS011;6367;52.508;13.284;2024-02-21T08:09:26;10.37;;;6.60;;
12603;SDS011;6367;52.508;13.284;2024-02-21T08:11:53;12.73;;;7.30;;
12603;SDS011;6367;52.508;13.284;2024-02-21T08:14:19;16.30;;;8.40;;
12603;SDS011;6367;52.508;13.284;2024-02-21T08:16:45;11.53;;;7.50;;
12603;SDS011;6367;52.508;13.284;2024-02-21T08:19:11;10.97;;;7.23;;
12603;SDS011;6367;52.508;13.284;2024-02-21T08:21:37;12.73;;;7.60;;
12603;SDS011;6367;52.508;13.284;2024-02-21T08:24:02;15.30;;;7.30;;
12603;SDS011;6367;52.508;13.284;2024-02-21T08:26:28;11.63;;;7.40;;
12603;SDS011;6367;52.508;13.284;2024-02-21T08:28:56;12.97;;;7.60;;
12603;SDS011;6367;52.508;13.284;2024-02-21T08:31:25;15.27;;;7.30;;
12603;SDS011;6367;52.508;13.284;2024-02-21T08:33:56;13.10;;;7.97;;
12603;SDS011;6367;52.508;13.284;2024-02-21T08:36:27;12.40;;;7.47;;
12603;SDS011;6367;52.508;13.284;2024-02-21T08:38:54;12.20;;;6.80;;
12603;SDS011;6367;52.508;13.284;2024-02-21T08:41:20;11.63;;;7.30;;
12603;SDS011;6367;52.508;13.284;2024-02-21T08:43:48;11.07;;;7.37;;
12603;SDS011;6367;52.508;13.284;2024-02-21T08:46:14;14.20;;;7.77;;
12603;SDS011;6367;52.508;13.284;2024-02-21T08:48:40;12.70;;;8.20;;
12603;SDS011;6367;52.508;13.284;2024-02-21T08:51:06;14.03;;;7.77;;
12603;SDS011;6367;52.508;13.284;2024-02-21T08:53:31;12.80;;;8.10;;
12603;SDS011;6367;52.508;13.284;2024-02-21T08:55:57;11.80;;;7.53;;
12603;SDS011;6367;52.508;13.284;2024-02-21T08:58:24;14.30;;;8.17;;
12603;SDS011;6367;52.508;13.284;2024-02-21T09:00:51;15.37;;;8.77;;
12603;SDS011;6367;52.508;13.284;2024-02-21T09:03:17;14.87;;;8.80;;
12603;SDS011;6367;52.508;13.284;2024-02-21T09:05:45;12.33;;;8.23;;
12603;SDS011;6367;52.508;13.284;2024-02-21T09:08:11;13.40;;;8.80;;
12603;SDS011;6367;52.508;13.284;2024-02-21T09:10:37;17.30;;;9.40;;
12603;SDS011;6367;52.508;13.284;2024-02-21T09:13:04;19.70;;;9.63;;
12603;SDS011;6367;52.508;13.284;2024-02-21T09:15:30;15.53;;;8.80;;
12603;SDS011;6367;52.508;13.284;2024-02-21T09:17:56;14.70;;;8.07;;
12603;SDS011;6367;52.508;13.284;2024-02-21T09:20:22;10.27;;;7.57;;
12603;SDS011;6367;52.508;13.284;2024-02-21T09:22:48;19.30;;;10.43;;
12603;SDS011;6367;52.508;13.284;2024-02-21T09:25:14;14.73;;;9.30;;
12603;SDS011;6367;52.508;13.284;2024-02-21T09:27:40;14.33;;;9.70;;
12603;SDS011;6367;52.508;13.284;2024-02-21T09:30:06;12.23;;;9.60;;
12603;SDS011;6367;52.508;13.284;2024-02-21T09:32:32;14.73;;;9.30;;
12603;SDS011;6367;52.508;13.284;2024-02-21T09:34:58;17.20;;;10.00;;
12603;SDS011;6367;52.508;13.284;2024-02-21T09:37:23;16.00;;;9.47;;
12603;SDS011;6367;52.508;13.284;2024-02-21T09:39:49;15.87;;;11.07;;
12603;SDS011;6367;52.508;13.284;2024-02-21T09:42:18;15.30;;;9.50;;
12603;SDS011;6367;52.508;13.284;2024-02-21T09:44:46;15.17;;;8.60;;
12603;SDS011;6367;52.508;13.284;2024-02-21T09:47:17;14.53;;;10.17;;
12603;SDS011;6367;52.508;13.284;2024-02-21T09:49:47;16.00;;;9.93;;
12603;SDS011;6367;52.508;13.284;2024-02-21T09:52:13;16.07;;;11.07;;
12603;SDS011;6367;52.508;13.284;2024-02-21T09:54:41;14.17;;;9.90;;
12603;SDS011;6367;52.508;13.284;2024-02-21T09:57:09;16.63;;;10.00;;
12603;SDS011;6367;52.508;13.284;2024-02-21T09:59:37;15.20;;;9.17;;
12603;SDS011;6367;52.508;13.284;2024-02-21T10:02:06;18.23;;;9.10;;
12603;SDS011;6367;52.508;13.284;2024-02-21T10:04:32;12.23;;;9.40;;
12603;SDS011;6367;52.508;13.284;2024-02-21T10:06:58;16.77;;;9.47;;
12603;SDS011;6367;52.508;13.284;2024-02-21T10:09:25;13.33;;;9.87;;
12603;SDS011;6367;52.508;13.284;2024-02-21T10:11:55;13.13;;;9.40;;
12603;SDS011;6367;52.508;13.284;2024-02-21T10:14:32;18.80;;;9.77;;
12603;SDS011;6367;52.508;13.284;2024-02-21T10:16:57;12.97;;;9.57;;
12603;SDS011;6367;52.508;13.284;2024-02-21T10:19:27;13.23;;;9.13;;
12603;SDS011;6367;52.508;13.284;2024-02-21T10:22:03;16.73;;;9.10;;
12603;SDS011;6367;52.508;13.284;2024-02-21T10:24:31;15.17;;;8.60;;
12603;SDS011;6367;52.508;13.284;2024-02-21T10:27:04;14.80;;;8.63;;
12603;SDS011;6367;52.508;13.284;2024-02-21T10:29:33;13.87;;;9.23;;
12603;SDS011;6367;52.508;13.284;2024-02-21T10:34:32;14.10;;;9.80;;
12603;SDS011;6367;52.508;13.284;2024-02-21T10:37:03;14.53;;;7.80;;
12603;SDS011;6367;52.508;13.284;2024-02-21T10:39:31;14.70;;;8.60;;
12603;SDS011;6367;52.508;13.284;2024-02-21T10:41:59;16.90;;;8.10;;
12603;SDS011;6367;52.508;13.284;2024-02-21T10:44:29;16.20;;;8.70;;
12603;SDS011;6367;52.508;13.284;2024-02-21T10:46:56;13.53;;;8.50;;
12603;SDS011;6367;52.508;13.284;2024-02-21T10:49:23;11.00;;;9.03;;
12603;SDS011;6367;52.508;13.284;2024-02-21T10:52:17;12.10;;;8.57;;
12603;SDS011;6367;52.508;13.284;2024-02-21T10:54:55;13.90;;;8.20;;
12603;SDS011;6367;52.508;13.284;2024-02-21T10:57:25;12.40;;;8.13;;
12603;SDS011;6367;52.508;13.284;2024-02-21T10:59:53;13.53;;;8.57;;
12603;SDS011;6367;52.508;13.284;2024-02-21T11:02:19;9.33;;;7.70;;
12603;SDS011;6367;52.508;13.284;2024-02-21T11:04:46;11.03;;;8.50;;
12603;SDS011;6367;52.508;13.284;2024-02-21T11:07:13;13.60;;;8.70;;
12603;SDS011;6367;52.508;13.284;2024-02-21T11:09:39;15.57;;;7.73;;
12603;SDS011;6367;52.508;13.284;2024-02-21T11:12:05;8.60;;;7.20;;
12603;SDS011;6367;52.508;13.284;2024-02-21T11:14:32;11.03;;;7.80;;
12603;SDS011;6367;52.508;13.284;2024-02-21T11:17:02;9.27;;;7.57;;
12603;SDS011;6367;52.508;13.284;2024-02-21T11:19:29;10.53;;;7.53;;
12603;SDS011;6367;52.508;13.284;2024-02-21T11:21:56;11.63;;;7.80;;
12603;SDS011;6367;52.508;13.284;2024-02-21T11:24:29;10.53;;;7.37;;
12603;SDS011;6367;52.508;13.284;2024-02-21T11:26:56;10.47;;;8.57;;
12603;SDS011;6367;52.508;13.284;2024-02-21T11:29:56;11.53;;;7.50;;
12603;SDS011;6367;52.508;13.284;2024-02-21T11:32:23;10.23;;;7.10;;
12603;SDS011;6367;52.508;13.284;2024-02-21T11:34:54;7.43;;;5.40;;
12603;SDS011;6367;52.508;13.284;2024-02-21T11:37:28;9.73;;;6.43;;
12603;SDS011;6367;52.508;13.284;2024-02-21T11:39:55;6.40;;;5.73;;
12603;SDS011;6367;52.508;13.284;2024-02-21T11:42:21;6.83;;;5.40;;
12603;SDS011;6367;52.508;13.284;2024-02-21T11:44:47;6.53;;;5.60;;
12603;SDS011;6367;52.508;13.284;2024-02-21T11:47:14;8.73;;;6.17;;
12603;SDS011;6367;52.508;13.284;2024-02-21T11:49:44;7.17;;;5.60;;
12603;SDS011;6367;52.508;13.284;2024-02-21T11:52:12;7.07;;;5.00;;
12603;SDS011;6367;52.508;13.284;2024-02-21T11:54:40;7.90;;;5.10;;
12603;SDS011;6367;52.508;13.284;2024-02-21T11:57:06;5.50;;;4.80;;
12603;SDS011;6367;52.508;13.284;2024-02-21T11:59:32;8.10;;;5.97;;
12603;SDS011;6367;52.508;13.284;2024-02-21T12:01:59;6.77;;;5.57;;
12603;SDS011;6367;52.508;13.284;2024-02-21T12:04:26;8.87;;;6.20;;
12603;SDS011;6367;52.508;13.284;2024-02-21T12:06:55;6.03;;;5.43;;
12603;SDS011;6367;52.508;13.284;2024-02-21T12:09:22;5.63;;;5.10;;
12603;SDS011;6367;52.508;13.284;2024-02-21T12:12:02;6.13;;;5.53;;
12603;SDS011;6367;52.508;13.284;2024-02-21T12:14:29;8.30;;;5.80;;
12603;SDS011;6367;52.508;13.284;2024-02-21T12:16:56;6.20;;;5.60;;
12603;SDS011;6367;52.508;13.284;2024-02-21T12:19:22;7.67;;;4.93;;
12603;SDS011;6367;52.508;13.284;2024-02-21T12:21:48;6.53;;;4.67;;
12603;SDS011;6367;52.508;13.284;2024-02-21T12:24:22;6.33;;;4.77;;
12603;SDS011;6367;52.508;13.284;2024-02-21T12:26:52;8.10;;;5.43;;
12603;SDS011;6367;52.508;13.284;2024-02-21T12:29:19;5.50;;;4.43;;
12603;SDS011;6367;52.508;13.284;2024-02-21T12:31:45;6.80;;;5.50;;
12603;SDS011;6367;52.508;13.284;2024-02-21T12:34:11;6.77;;;4.40;;
12603;SDS011;6367;52.508;13.284;2024-02-21T12:36:43;5.63;;;4.43;;
12603;SDS011;6367;52.508;13.284;2024-02-21T12:39:12;6.30;;;4.80;;
12603;SDS011;6367;52.508;13.284;2024-02-21T12:41:38;4.10;;;3.63;;
12603;SDS011;6367;52.508;13.284;2024-02-21T12:44:05;6.70;;;4.60;;
12603;SDS011;6367;52.508;13.284;2024-02-21T12:46:32;6.23;;;4.50;;
12603;SDS011;6367;52.508;13.284;2024-02-21T12:48:58;7.50;;;4.10;;
12603;SDS011;6367;52.508;13.284;2024-02-21T12:51:24;5.67;;;4.07;;
12603;SDS011;6367;52.508;13.284;2024-02-21T12:53:50;5.27;;;3.90;;
12603;SDS011;6367;52.508;13.284;2024-02-21T12:56:16;4.47;;;3.90;;
12603;SDS011;6367;52.508;13.284;2024-02-21T12:58:41;5.47;;;3.73;;
12603;SDS011;6367;52.508;13.284;2024-02-21T13:01:07;6.07;;;4.47;;
12603;SDS011;6367;52.508;13.284;2024-02-21T13:03:34;4.23;;;3.60;;
12603;SDS011;6367;52.508;13.284;2024-02-21T13:05:59;3.80;;;3.50;;
12603;SDS011;6367;52.508;13.284;2024-02-21T13:08:25;6.73;;;4.33;;
12603;SDS011;6367;52.508;13.284;2024-02-21T13:10:51;3.77;;;3.43;;
12603;SDS011;6367;52.508;13.284;2024-02-21T13:13:16;8.50;;;4.30;;
12603;SDS011;6367;52.508;13.284;2024-02-21T13:15:42;7.53;;;4.60;;
12603;SDS011;6367;52.508;13.284;2024-02-21T13:18:08;8.43;;;4.30;;
12603;SDS011;6367;52.508;13.284;2024-02-21T13:20:35;8.07;;;3.90;;
12603;SDS011;6367;52.508;13.284;2024-02-21T13:23:01;6.30;;;4.20;;
12603;SDS011;6367;52.508;13.284;2024-02-21T13:25:27;7.87;;;4.50;;
12603;SDS011;6367;52.508;13.284;2024-02-21T13:27:53;4.33;;;3.00;;
12603;SDS011;6367;52.508;13.284;2024-02-21T13:30:19;5.90;;;4.57;;
12603;SDS011;6367;52.508;13.284;2024-02-21T13:32:45;5.53;;;4.83;;
12603;SDS011;6367;52.508;13.284;2024-02-21T13:35:14;4.80;;;3.63;;
12603;SDS011;6367;52.508;13.284;2024-02-21T13:37:43;7.27;;;4.63;;
12603;SDS011;6367;52.508;13.284;2024-02-21T13:40:09;7.10;;;4.27;;
12603;SDS011;6367;52.508;13.284;2024-02-21T13:42:35;5.60;;;4.00;;
12603;SDS011;6367;52.508;13.284;2024-02-21T13:45:04;11.43;;;5.53;;
12603;SDS011;6367;52.508;13.284;2024-02-21T13:47:30;5.67;;;3.80;;
12603;SDS011;6367;52.508;13.284;2024-02-21T13:49:57;7.77;;;3.90;;
12603;SDS011;6367;52.508;13.284;2024-02-21T13:52:23;7.43;;;4.17;;
12603;SDS011;6367;52.508;13.284;2024-02-21T13:54:51;4.13;;;3.73;;
12603;SDS011;6367;52.508;13.284;2024-02-21T13:57:17;5.03;;;3.43;;
12603;SDS011;6367;52.508;13.284;2024-02-21T13:59:42;7.60;;;4.37;;
12603;SDS011;6367;52.508;13.284;2024-02-21T14:02:08;5.67;;;4.17;;
12603;SDS011;6367;52.508;13.284;2024-02-21T14:04:34;5.90;;;3.93;;
12603;SDS011;6367;52.508;13.284;2024-02-21T14:07:00;6.83;;;4.20;;
12603;SDS011;6367;52.508;13.284;2024-02-21T14:09:26;6.73;;;4.30;;
12603;SDS011;6367;52.508;13.284;2024-02-21T14:11:54;5.07;;;3.73;;
12603;SDS011;6367;52.508;13.284;2024-02-21T14:14:20;4.40;;;3.67;;
12603;SDS011;6367;52.508;13.284;2024-02-21T14:16:46;7.47;;;3.30;;
12603;SDS011;6367;52.508;13.284;2024-02-21T14:19:13;4.93;;;4.10;;
12603;SDS011;6367;52.508;13.284;2024-02-21T14:21:39;5.70;;;3.40;;
12603;SDS011;6367;52.508;13.284;2024-02-21T14:24:05;5.70;;;3.70;;
12603;SDS011;6367;52.508;13.284;2024-02-21T14:26:31;5.93;;;3.53;;
12603;SDS011;6367;52.508;13.284;2024-02-21T14:28:57;6.57;;;3.30;;
12603;SDS011;6367;52.508;13.284;2024-02-21T14:31:24;7.00;;;3.87;;
12603;SDS011;6367;52.508;13.284;2024-02-21T14:33:50;6.17;;;3.57;;
12603;SDS011;6367;52.508;13.284;2024-02-21T14:36:16;5.80;;;3.07;;
12603;SDS011;6367;52.508;13.284;2024-02-21T14:38:42;7.87;;;3.20;;